sensor_id;sensor_type;location;lat;lon;timestamp;P1;durP1;ratioP1;P2;durP2;ratioP2
42006;SDS011;27696;42.704;23.304;2022-09-09T00:04:45;15.07;;;10.90;;
42006;SDS011;27696;42.704;23.304;2022-09-09T00:07:29;12.35;;;11.05;;
42006;SDS011;27696;42.704;23.304;2022-09-09T00:10:29;11.93;;;10.73;;
42006;SDS011;27696;42.704;23.304;2022-09-09T00:15:37;14.43;;;10.65;;
42006;SDS011;27696;42.704;23.304;2022-09-09T00:21:02;12.80;;;11.60;;
42006;SDS011;27696;42.704;23.304;2022-09-09T00:23:32;13.73;;;11.80;;
42006;SDS011;27696;42.704;23.304;2022-09-09T00:28:30;13.70;;;11.93;;
42006;SDS011;27696;42.704;23.304;2022-09-09T00:31:02;14.85;;;11.40;;
42006;SDS011;27696;42.704;23.304;2022-09-09T00:33:39;14.40;;;11.27;;
42006;SDS011;27696;42.704;23.304;2022-09-09T00:36:09;12.65;;;11.27;;
42006;SDS011;27696;42.704;23.304;2022-09-09T00:38:43;13.05;;;11.70;;
42006;SDS011;27696;42.704;23.304;2022-09-09T00:43:56;13.73;;;12.32;;
42006;SDS011;27696;42.704;23.304;2022-09-09T00:49:35;14.15;;;11.77;;
42006;SDS011;27696;42.704;23.304;2022-09-09T00:57:32;12.45;;;11.13;;
42006;SDS011;27696;42.704;23.304;2022-09-09T01:02:49;12.80;;;11.15;;
42006;SDS011;27696;42.704;23.304;2022-09-09T01:05:22;14.38;;;11.63;;
42006;SDS011;27696;42.704;23.304;2022-09-09T01:08:01;13.38;;;11.48;;
42006;SDS011;27696;42.704;23.304;2022-09-09T01:13:22;17.63;;;11.60;;
42006;SDS011;27696;42.704;23.304;2022-09-09T01:15:51;18.85;;;11.82;;
42006;SDS011;27696;42.704;23.304;2022-09-09T01:18:19;12.00;;;10.95;;
42006;SDS011;27696;42.704;23.304;2022-09-09T01:21:04;22.90;;;12.68;;
42006;SDS011;27696;42.704;23.304;2022-09-09T01:26:43;14.15;;;12.52;;
42006;SDS011;27696;42.704;23.304;2022-09-09T01:29:14;20.23;;;13.02;;
42006;SDS011;27696;42.704;23.304;2022-09-09T01:34:22;26.60;;;13.75;;
42006;SDS011;27696;42.704;23.304;2022-09-09T01:36:52;25.88;;;17.77;;
42006;SDS011;27696;42.704;23.304;2022-09-09T01:39:29;20.70;;;15.07;;
42006;SDS011;27696;42.704;23.304;2022-09-09T01:41:55;15.43;;;12.73;;
42006;SDS011;27696;42.704;23.304;2022-09-09T01:44:21;18.73;;;13.55;;
42006;SDS011;27696;42.704;23.304;2022-09-09T01:46:48;17.60;;;12.73;;
42006;SDS011;27696;42.704;23.304;2022-09-09T01:49:13;15.60;;;12.27;;
42006;SDS011;27696;42.704;23.304;2022-09-09T01:51:39;15.95;;;12.95;;
42006;SDS011;27696;42.704;23.304;2022-09-09T01:54:06;13.90;;;12.10;;
42006;SDS011;27696;42.704;23.304;2022-09-09T02:07:03;16.60;;;12.82;;
42006;SDS011;27696;42.704;23.304;2022-09-09T02:09:52;15.63;;;12.10;;
42006;SDS011;27696;42.704;23.304;2022-09-09T02:12:40;13.50;;;12.15;;
42006;SDS011;27696;42.704;23.304;2022-09-09T02:15:12;14.13;;;12.27;;
42006;SDS011;27696;42.704;23.304;2022-09-09T02:17:47;19.42;;;12.50;;
42006;SDS011;27696;42.704;23.304;2022-09-09T02:20:17;14.95;;;12.52;;
42006;SDS011;27696;42.704;23.304;2022-09-09T02:22:44;16.33;;;12.57;;
42006;SDS011;27696;42.704;23.304;2022-09-09T02:25:12;17.30;;;13.73;;
42006;SDS011;27696;42.704;23.304;2022-09-09T02:27:42;26.15;;;14.35;;
42006;SDS011;27696;42.704;23.304;2022-09-09T02:30:10;16.25;;;13.25;;
42006;SDS011;27696;42.704;23.304;2022-09-09T02:32:37;15.23;;;13.23;;
42006;SDS011;27696;42.704;23.304;2022-09-09T02:35:06;14.73;;;13.15;;
42006;SDS011;27696;42.704;23.304;2022-09-09T02:37:37;15.90;;;12.65;;
42006;SDS011;27696;42.704;23.304;2022-09-09T02:40:05;54.30;;;14.63;;
42006;SDS011;27696;42.704;23.304;2022-09-09T02:42:37;27.65;;;13.30;;
42006;SDS011;27696;42.704;23.304;2022-09-09T02:45:05;19.77;;;12.95;;
42006;SDS011;27696;42.704;23.304;2022-09-09T02:47:35;21.85;;;13.73;;
42006;SDS011;27696;42.704;23.304;2022-09-09T02:50:12;19.92;;;12.98;;
42006;SDS011;27696;42.704;23.304;2022-09-09T02:57:56;13.80;;;12.50;;
42006;SDS011;27696;42.704;23.304;2022-09-09T03:00:24;14.73;;;12.02;;
42006;SDS011;27696;42.704;23.304;2022-09-09T03:02:52;14.45;;;11.68;;
42006;SDS011;27696;42.704;23.304;2022-09-09T03:05:19;14.10;;;12.52;;
42006;SDS011;27696;42.704;23.304;2022-09-09T03:07:45;14.60;;;11.57;;
42006;SDS011;27696;42.704;23.304;2022-09-09T03:10:10;13.90;;;12.50;;
42006;SDS011;27696;42.704;23.304;2022-09-09T03:12:36;13.57;;;12.27;;
42006;SDS011;27696;42.704;23.304;2022-09-09T03:15:01;24.13;;;13.20;;
42006;SDS011;27696;42.704;23.304;2022-09-09T03:17:27;15.07;;;12.45;;
42006;SDS011;27696;42.704;23.304;2022-09-09T03:19:53;13.18;;;11.88;;
42006;SDS011;27696;42.704;23.304;2022-09-09T03:22:20;17.88;;;13.10;;
42006;SDS011;27696;42.704;23.304;2022-09-09T03:24:46;15.82;;;13.10;;
42006;SDS011;27696;42.704;23.304;2022-09-09T03:27:12;16.15;;;14.20;;
42006;SDS011;27696;42.704;23.304;2022-09-09T03:29:39;17.77;;;14.27;;
42006;SDS011;27696;42.704;23.304;2022-09-09T03:32:05;15.20;;;12.80;;
42006;SDS011;27696;42.704;23.304;2022-09-09T03:34:30;14.20;;;12.88;;
42006;SDS011;27696;42.704;23.304;2022-09-09T03:36:56;14.02;;;12.43;;
42006;SDS011;27696;42.704;23.304;2022-09-09T03:39:21;15.63;;;13.20;;
42006;SDS011;27696;42.704;23.304;2022-09-09T03:41:47;14.90;;;13.30;;
42006;SDS011;27696;42.704;23.304;2022-09-09T03:44:13;14.95;;;13.52;;
42006;SDS011;27696;42.704;23.304;2022-09-09T03:46:39;18.02;;;13.75;;
42006;SDS011;27696;42.704;23.304;2022-09-09T03:49:04;17.52;;;13.68;;
42006;SDS011;27696;42.704;23.304;2022-09-09T03:51:30;15.48;;;13.88;;
42006;SDS011;27696;42.704;23.304;2022-09-09T03:53:55;15.85;;;13.48;;
42006;SDS011;27696;42.704;23.304;2022-09-09T03:56:23;18.00;;;14.43;;
42006;SDS011;27696;42.704;23.304;2022-09-09T03:58:49;21.60;;;13.65;;
42006;SDS011;27696;42.704;23.304;2022-09-09T04:01:14;19.70;;;13.65;;
42006;SDS011;27696;42.704;23.304;2022-09-09T04:03:42;22.23;;;13.80;;
42006;SDS011;27696;42.704;23.304;2022-09-09T04:06:10;26.88;;;14.38;;
42006;SDS011;27696;42.704;23.304;2022-09-09T04:08:38;22.83;;;14.68;;
42006;SDS011;27696;42.704;23.304;2022-09-09T04:11:05;20.67;;;14.32;;
42006;SDS011;27696;42.704;23.304;2022-09-09T04:13:32;27.23;;;14.52;;
42006;SDS011;27696;42.704;23.304;2022-09-09T04:15:59;27.88;;;14.75;;
42006;SDS011;27696;42.704;23.304;2022-09-09T04:18:25;21.65;;;14.68;;
42006;SDS011;27696;42.704;23.304;2022-09-09T04:20:53;21.65;;;14.35;;
42006;SDS011;27696;42.704;23.304;2022-09-09T04:23:21;19.70;;;13.73;;
42006;SDS011;27696;42.704;23.304;2022-09-09T04:25:47;20.67;;;14.77;;
42006;SDS011;27696;42.704;23.304;2022-09-09T04:28:17;22.80;;;15.38;;
42006;SDS011;27696;42.704;23.304;2022-09-09T04:30:44;15.95;;;14.20;;
42006;SDS011;27696;42.704;23.304;2022-09-09T04:33:10;17.80;;;14.68;;
42006;SDS011;27696;42.704;23.304;2022-09-09T04:35:37;16.15;;;14.10;;
42006;SDS011;27696;42.704;23.304;2022-09-09T04:38:02;18.95;;;14.52;;
42006;SDS011;27696;42.704;23.304;2022-09-09T04:40:28;32.00;;;14.52;;
42006;SDS011;27696;42.704;23.304;2022-09-09T04:42:58;17.38;;;15.02;;
42006;SDS011;27696;42.704;23.304;2022-09-09T04:45:24;18.80;;;14.90;;
42006;SDS011;27696;42.704;23.304;2022-09-09T04:47:51;21.92;;;15.35;;
42006;SDS011;27696;42.704;23.304;2022-09-09T04:50:17;28.83;;;16.42;;
42006;SDS011;27696;42.704;23.304;2022-09-09T04:52:43;22.80;;;15.43;;
42006;SDS011;27696;42.704;23.304;2022-09-09T04:55:09;22.52;;;15.20;;
42006;SDS011;27696;42.704;23.304;2022-09-09T04:57:35;27.88;;;16.42;;
42006;SDS011;27696;42.704;23.304;2022-09-09T05:00:00;30.48;;;15.52;;
42006;SDS011;27696;42.704;23.304;2022-09-09T05:02:26;28.23;;;15.52;;
42006;SDS011;27696;42.704;23.304;2022-09-09T05:04:52;24.50;;;17.55;;
42006;SDS011;27696;42.704;23.304;2022-09-09T05:07:17;22.40;;;15.52;;
42006;SDS011;27696;42.704;23.304;2022-09-09T05:09:43;19.27;;;15.32;;
42006;SDS011;27696;42.704;23.304;2022-09-09T05:12:10;26.08;;;16.77;;
42006;SDS011;27696;42.704;23.304;2022-09-09T05:14:36;31.08;;;17.13;;
42006;SDS011;27696;42.704;23.304;2022-09-09T05:17:02;22.92;;;16.38;;
42006;SDS011;27696;42.704;23.304;2022-09-09T05:19:29;25.63;;;17.08;;
42006;SDS011;27696;42.704;23.304;2022-09-09T05:21:55;21.33;;;15.27;;
42006;SDS011;27696;42.704;23.304;2022-09-09T05:24:21;38.47;;;16.60;;
42006;SDS011;27696;42.704;23.304;2022-09-09T05:26:48;22.30;;;15.77;;
42006;SDS011;27696;42.704;23.304;2022-09-09T05:29:13;20.17;;;15.55;;
42006;SDS011;27696;42.704;23.304;2022-09-09T05:31:39;28.60;;;16.70;;
42006;SDS011;27696;42.704;23.304;2022-09-09T05:34:04;22.05;;;15.63;;
42006;SDS011;27696;42.704;23.304;2022-09-09T05:36:30;21.60;;;15.05;;
42006;SDS011;27696;42.704;23.304;2022-09-09T05:38:55;24.95;;;14.45;;
42006;SDS011;27696;42.704;23.304;2022-09-09T05:41:20;21.60;;;14.43;;
42006;SDS011;27696;42.704;23.304;2022-09-09T05:43:48;27.50;;;14.65;;
42006;SDS011;27696;42.704;23.304;2022-09-09T05:46:21;21.85;;;15.27;;
42006;SDS011;27696;42.704;23.304;2022-09-09T05:48:48;24.13;;;15.03;;
42006;SDS011;27696;42.704;23.304;2022-09-09T05:51:19;19.75;;;14.93;;
42006;SDS011;27696;42.704;23.304;2022-09-09T05:53:46;27.05;;;15.10;;
42006;SDS011;27696;42.704;23.304;2022-09-09T05:56:16;16.23;;;14.48;;
42006;SDS011;27696;42.704;23.304;2022-09-09T05:58:43;22.02;;;15.20;;
42006;SDS011;27696;42.704;23.304;2022-09-09T06:01:14;22.20;;;15.25;;
42006;SDS011;27696;42.704;23.304;2022-09-09T06:03:42;25.33;;;14.32;;
42006;SDS011;27696;42.704;23.304;2022-09-09T06:06:09;25.58;;;14.95;;
42006;SDS011;27696;42.704;23.304;2022-09-09T06:08:38;21.23;;;14.23;;
42006;SDS011;27696;42.704;23.304;2022-09-09T06:11:06;17.95;;;14.35;;
42006;SDS011;27696;42.704;23.304;2022-09-09T06:13:34;19.77;;;13.93;;
42006;SDS011;27696;42.704;23.304;2022-09-09T06:16:00;21.20;;;13.95;;
42006;SDS011;27696;42.704;23.304;2022-09-09T06:18:26;21.63;;;14.35;;
42006;SDS011;27696;42.704;23.304;2022-09-09T06:23:25;17.00;;;13.77;;
42006;SDS011;27696;42.704;23.304;2022-09-09T06:25:51;16.60;;;14.75;;
42006;SDS011;27696;42.704;23.304;2022-09-09T06:28:25;20.92;;;14.27;;
42006;SDS011;27696;42.704;23.304;2022-09-09T06:30:56;21.65;;;13.90;;
42006;SDS011;27696;42.704;23.304;2022-09-09T06:33:23;21.55;;;15.73;;
42006;SDS011;27696;42.704;23.304;2022-09-09T06:35:52;22.52;;;16.25;;
42006;SDS011;27696;42.704;23.304;2022-09-09T06:38:18;22.88;;;15.95;;
42006;SDS011;27696;42.704;23.304;2022-09-09T06:40:50;17.42;;;14.20;;
42006;SDS011;27696;42.704;23.304;2022-09-09T06:43:23;18.25;;;13.10;;
42006;SDS011;27696;42.704;23.304;2022-09-09T06:46:01;19.23;;;12.77;;
42006;SDS011;27696;42.704;23.304;2022-09-09T06:48:29;21.33;;;13.00;;
42006;SDS011;27696;42.704;23.304;2022-09-09T06:51:02;21.13;;;11.88;;
42006;SDS011;27696;42.704;23.304;2022-09-09T06:53:29;17.30;;;12.40;;
42006;SDS011;27696;42.704;23.304;2022-09-09T06:55:54;15.75;;;10.52;;
42006;SDS011;27696;42.704;23.304;2022-09-09T06:58:20;16.40;;;10.95;;
42006;SDS011;27696;42.704;23.304;2022-09-09T07:00:47;20.75;;;10.32;;
42006;SDS011;27696;42.704;23.304;2022-09-09T07:03:13;20.65;;;10.98;;
42006;SDS011;27696;42.704;23.304;2022-09-09T07:05:38;11.32;;;8.80;;
42006;SDS011;27696;42.704;23.304;2022-09-09T07:08:04;21.08;;;9.52;;
42006;SDS011;27696;42.704;23.304;2022-09-09T07:10:29;19.75;;;8.90;;
42006;SDS011;27696;42.704;23.304;2022-09-09T07:12:54;14.85;;;8.50;;
42006;SDS011;27696;42.704;23.304;2022-09-09T07:15:20;12.35;;;7.93;;
42006;SDS011;27696;42.704;23.304;2022-09-09T07:17:47;16.50;;;7.68;;
42006;SDS011;27696;42.704;23.304;2022-09-09T07:20:13;16.67;;;6.70;;
42006;SDS011;27696;42.704;23.304;2022-09-09T07:22:39;12.73;;;7.30;;
42006;SDS011;27696;42.704;23.304;2022-09-09T07:25:06;8.80;;;6.50;;
42006;SDS011;27696;42.704;23.304;2022-09-09T07:27:32;10.65;;;7.82;;
42006;SDS011;27696;42.704;23.304;2022-09-09T07:29:57;12.75;;;7.70;;
42006;SDS011;27696;42.704;23.304;2022-09-09T07:32:22;8.20;;;7.30;;
42006;SDS011;27696;42.704;23.304;2022-09-09T07:34:48;13.05;;;7.32;;
42006;SDS011;27696;42.704;23.304;2022-09-09T07:37:15;13.30;;;7.05;;
42006;SDS011;27696;42.704;23.304;2022-09-09T07:39:41;10.65;;;7.85;;
42006;SDS011;27696;42.704;23.304;2022-09-09T07:42:07;10.20;;;6.65;;
42006;SDS011;27696;42.704;23.304;2022-09-09T07:44:34;15.88;;;8.75;;
42006;SDS011;27696;42.704;23.304;2022-09-09T07:47:01;18.50;;;8.27;;
42006;SDS011;27696;42.704;23.304;2022-09-09T07:49:28;11.55;;;7.55;;
42006;SDS011;27696;42.704;23.304;2022-09-09T07:51:53;12.75;;;7.78;;
42006;SDS011;27696;42.704;23.304;2022-09-09T07:54:19;17.60;;;7.68;;
42006;SDS011;27696;42.704;23.304;2022-09-09T07:56:48;11.63;;;7.53;;
42006;SDS011;27696;42.704;23.304;2022-09-09T07:59:14;14.20;;;7.07;;
42006;SDS011;27696;42.704;23.304;2022-09-09T08:01:42;16.38;;;8.15;;
42006;SDS011;27696;42.704;23.304;2022-09-09T08:04:16;10.15;;;7.82;;
42006;SDS011;27696;42.704;23.304;2022-09-09T08:06:44;13.15;;;9.93;;
42006;SDS011;27696;42.704;23.304;2022-09-09T08:09:14;12.75;;;8.45;;
42006;SDS011;27696;42.704;23.304;2022-09-09T08:11:41;8.20;;;6.82;;
42006;SDS011;27696;42.704;23.304;2022-09-09T08:14:08;15.38;;;7.75;;
42006;SDS011;27696;42.704;23.304;2022-09-09T08:16:35;21.38;;;8.88;;
42006;SDS011;27696;42.704;23.304;2022-09-09T08:19:03;14.88;;;7.95;;
42006;SDS011;27696;42.704;23.304;2022-09-09T08:21:31;13.27;;;6.28;;
42006;SDS011;27696;42.704;23.304;2022-09-09T08:23:58;14.85;;;7.07;;
42006;SDS011;27696;42.704;23.304;2022-09-09T08:26:29;10.15;;;6.18;;
42006;SDS011;27696;42.704;23.304;2022-09-09T08:29:03;13.88;;;6.45;;
42006;SDS011;27696;42.704;23.304;2022-09-09T08:31:32;8.02;;;6.35;;
42006;SDS011;27696;42.704;23.304;2022-09-09T08:34:04;9.15;;;7.88;;
42006;SDS011;27696;42.704;23.304;2022-09-09T08:36:31;12.60;;;6.75;;
42006;SDS011;27696;42.704;23.304;2022-09-09T08:38:59;9.35;;;7.32;;
42006;SDS011;27696;42.704;23.304;2022-09-09T08:47:11;11.93;;;7.03;;
42006;SDS011;27696;42.704;23.304;2022-09-09T08:52:52;16.17;;;9.43;;
42006;SDS011;27696;42.704;23.304;2022-09-09T08:55:45;21.00;;;15.30;;
42006;SDS011;27696;42.704;23.304;2022-09-09T08:58:17;14.82;;;7.07;;
42006;SDS011;27696;42.704;23.304;2022-09-09T09:11:33;8.82;;;7.40;;
42006;SDS011;27696;42.704;23.304;2022-09-09T09:14:43;11.87;;;7.20;;
42006;SDS011;27696;42.704;23.304;2022-09-09T09:19:21;16.85;;;7.55;;
42006;SDS011;27696;42.704;23.304;2022-09-09T09:21:50;10.90;;;6.78;;
42006;SDS011;27696;42.704;23.304;2022-09-09T09:24:56;11.75;;;6.45;;
42006;SDS011;27696;42.704;23.304;2022-09-09T09:30:26;10.77;;;7.45;;
42006;SDS011;27696;42.704;23.304;2022-09-09T09:33:00;12.68;;;7.30;;
42006;SDS011;27696;42.704;23.304;2022-09-09T09:35:48;12.77;;;6.68;;
42006;SDS011;27696;42.704;23.304;2022-09-09T09:38:22;10.27;;;6.85;;
42006;SDS011;27696;42.704;23.304;2022-09-09T09:40:58;10.23;;;6.28;;
42006;SDS011;27696;42.704;23.304;2022-09-09T09:43:29;11.88;;;6.53;;
42006;SDS011;27696;42.704;23.304;2022-09-09T09:45:59;14.82;;;6.65;;
42006;SDS011;27696;42.704;23.304;2022-09-09T09:48:25;11.10;;;6.95;;
42006;SDS011;27696;42.704;23.304;2022-09-09T09:50:53;11.63;;;6.63;;
42006;SDS011;27696;42.704;23.304;2022-09-09T09:53:33;8.65;;;7.05;;
42006;SDS011;27696;42.704;23.304;2022-09-09T09:56:02;12.20;;;7.47;;
42006;SDS011;27696;42.704;23.304;2022-09-09T09:58:32;7.63;;;6.55;;
42006;SDS011;27696;42.704;23.304;2022-09-09T10:01:04;11.57;;;7.70;;
42006;SDS011;27696;42.704;23.304;2022-09-09T10:05:56;11.02;;;7.10;;
42006;SDS011;27696;42.704;23.304;2022-09-09T10:08:23;11.68;;;8.45;;
42006;SDS011;27696;42.704;23.304;2022-09-09T10:10:56;13.40;;;6.65;;
42006;SDS011;27696;42.704;23.304;2022-09-09T10:19:34;9.98;;;7.43;;
42006;SDS011;27696;42.704;23.304;2022-09-09T10:30:01;17.02;;;9.07;;
42006;SDS011;27696;42.704;23.304;2022-09-09T10:38:16;17.58;;;9.38;;
42006;SDS011;27696;42.704;23.304;2022-09-09T10:46:09;12.02;;;7.55;;
42006;SDS011;27696;42.704;23.304;2022-09-09T10:48:46;9.93;;;7.28;;
42006;SDS011;27696;42.704;23.304;2022-09-09T10:53:48;11.60;;;8.10;;
42006;SDS011;27696;42.704;23.304;2022-09-09T10:56:22;10.00;;;7.40;;
42006;SDS011;27696;42.704;23.304;2022-09-09T10:58:51;12.75;;;7.38;;
42006;SDS011;27696;42.704;23.304;2022-09-09T11:02:05;12.38;;;7.32;;
42006;SDS011;27696;42.704;23.304;2022-09-09T11:04:23;12.70;;;8.85;;
42006;SDS011;27696;42.704;23.304;2022-09-09T11:06:57;10.80;;;8.18;;
42006;SDS011;27696;42.704;23.304;2022-09-09T11:09:30;15.85;;;8.48;;
42006;SDS011;27696;42.704;23.304;2022-09-09T11:12:01;11.20;;;6.90;;
42006;SDS011;27696;42.704;23.304;2022-09-09T11:17:07;9.70;;;6.80;;
42006;SDS011;27696;42.704;23.304;2022-09-09T11:19:41;11.68;;;7.05;;
42006;SDS011;27696;42.704;23.304;2022-09-09T11:22:15;11.82;;;7.57;;
42006;SDS011;27696;42.704;23.304;2022-09-09T11:24:43;9.95;;;7.57;;
42006;SDS011;27696;42.704;23.304;2022-09-09T11:40:57;12.38;;;8.48;;
42006;SDS011;27696;42.704;23.304;2022-09-09T11:43:30;11.03;;;6.83;;
42006;SDS011;27696;42.704;23.304;2022-09-09T11:45:59;11.20;;;7.90;;
42006;SDS011;27696;42.704;23.304;2022-09-09T11:48:34;13.70;;;7.35;;
42006;SDS011;27696;42.704;23.304;2022-09-09T11:53:47;12.50;;;7.55;;
42006;SDS011;27696;42.704;23.304;2022-09-09T11:56:32;14.37;;;7.73;;
42006;SDS011;27696;42.704;23.304;2022-09-09T11:59:49;9.88;;;7.47;;
42006;SDS011;27696;42.704;23.304;2022-09-09T12:09:56;10.38;;;7.97;;
42006;SDS011;27696;42.704;23.304;2022-09-09T12:12:30;9.15;;;6.80;;
42006;SDS011;27696;42.704;23.304;2022-09-09T12:15:01;15.13;;;8.00;;
42006;SDS011;27696;42.704;23.304;2022-09-09T12:17:30;13.48;;;8.10;;
42006;SDS011;27696;42.704;23.304;2022-09-09T12:25:23;11.65;;;8.05;;
42006;SDS011;27696;42.704;23.304;2022-09-09T12:37:48;10.18;;;8.38;;
42006;SDS011;27696;42.704;23.304;2022-09-09T12:40:03;11.07;;;8.80;;
42006;SDS011;27696;42.704;23.304;2022-09-09T12:42:44;11.32;;;8.80;;
42006;SDS011;27696;42.704;23.304;2022-09-09T12:45:19;12.90;;;8.02;;
42006;SDS011;27696;42.704;23.304;2022-09-09T12:47:48;12.38;;;8.38;;
42006;SDS011;27696;42.704;23.304;2022-09-09T12:50:35;12.82;;;9.00;;
42006;SDS011;27696;42.704;23.304;2022-09-09T12:53:25;14.82;;;9.15;;
42006;SDS011;27696;42.704;23.304;2022-09-09T12:56:04;10.07;;;8.35;;
42006;SDS011;27696;42.704;23.304;2022-09-09T12:58:33;13.90;;;9.30;;
42006;SDS011;27696;42.704;23.304;2022-09-09T13:01:00;15.45;;;8.55;;
42006;SDS011;27696;42.704;23.304;2022-09-09T13:03:28;11.02;;;7.80;;
42006;SDS011;27696;42.704;23.304;2022-09-09T13:05:53;14.45;;;7.75;;
42006;SDS011;27696;42.704;23.304;2022-09-09T13:08:25;11.30;;;6.70;;
42006;SDS011;27696;42.704;23.304;2022-09-09T13:10:56;14.57;;;6.00;;
42006;SDS011;27696;42.704;23.304;2022-09-09T13:13:27;13.20;;;5.10;;
42006;SDS011;27696;42.704;23.304;2022-09-09T13:15:58;12.40;;;5.68;;
42006;SDS011;27696;42.704;23.304;2022-09-09T13:18:29;8.60;;;5.80;;
42006;SDS011;27696;42.704;23.304;2022-09-09T13:21:06;13.15;;;5.35;;
42006;SDS011;27696;42.704;23.304;2022-09-09T13:23:32;9.82;;;5.63;;
42006;SDS011;27696;42.704;23.304;2022-09-09T13:26:03;11.88;;;5.60;;
42006;SDS011;27696;42.704;23.304;2022-09-09T13:28:31;11.55;;;5.90;;
42006;SDS011;27696;42.704;23.304;2022-09-09T13:31:01;11.15;;;5.53;;
42006;SDS011;27696;42.704;23.304;2022-09-09T13:35:57;11.07;;;5.57;;
42006;SDS011;27696;42.704;23.304;2022-09-09T13:38:27;11.27;;;5.63;;
42006;SDS011;27696;42.704;23.304;2022-09-09T13:40:55;8.95;;;5.82;;
42006;SDS011;27696;42.704;23.304;2022-09-09T13:43:26;6.70;;;5.13;;
42006;SDS011;27696;42.704;23.304;2022-09-09T13:45:55;16.35;;;5.30;;
42006;SDS011;27696;42.704;23.304;2022-09-09T13:48:23;10.93;;;6.00;;
42006;SDS011;27696;42.704;23.304;2022-09-09T13:50:59;8.18;;;5.38;;
42006;SDS011;27696;42.704;23.304;2022-09-09T13:53:28;9.85;;;5.38;;
42006;SDS011;27696;42.704;23.304;2022-09-09T13:55:54;10.98;;;6.18;;
42006;SDS011;27696;42.704;23.304;2022-09-09T13:58:19;10.35;;;5.50;;
42006;SDS011;27696;42.704;23.304;2022-09-09T14:00:45;14.43;;;4.93;;
42006;SDS011;27696;42.704;23.304;2022-09-09T14:03:11;12.38;;;4.80;;
42006;SDS011;27696;42.704;23.304;2022-09-09T14:05:37;10.82;;;5.32;;
42006;SDS011;27696;42.704;23.304;2022-09-09T14:08:06;13.13;;;5.40;;
42006;SDS011;27696;42.704;23.304;2022-09-09T14:10:33;10.10;;;5.15;;
42006;SDS011;27696;42.704;23.304;2022-09-09T14:13:01;13.50;;;5.45;;
42006;SDS011;27696;42.704;23.304;2022-09-09T14:15:27;12.85;;;5.93;;
42006;SDS011;27696;42.704;23.304;2022-09-09T14:17:54;12.82;;;5.93;;
42006;SDS011;27696;42.704;23.304;2022-09-09T14:20:19;10.30;;;6.70;;
42006;SDS011;27696;42.704;23.304;2022-09-09T14:22:47;15.45;;;7.70;;
42006;SDS011;27696;42.704;23.304;2022-09-09T14:25:12;12.95;;;6.45;;
42006;SDS011;27696;42.704;23.304;2022-09-09T14:27:40;11.77;;;5.13;;
42006;SDS011;27696;42.704;23.304;2022-09-09T14:30:07;14.85;;;5.82;;
42006;SDS011;27696;42.704;23.304;2022-09-09T14:32:34;14.27;;;5.82;;
42006;SDS011;27696;42.704;23.304;2022-09-09T14:34:59;14.60;;;6.70;;
42006;SDS011;27696;42.704;23.304;2022-09-09T14:37:26;12.20;;;7.35;;
42006;SDS011;27696;42.704;23.304;2022-09-09T14:39:52;12.90;;;8.98;;
42006;SDS011;27696;42.704;23.304;2022-09-09T14:42:18;13.80;;;9.98;;
42006;SDS011;27696;42.704;23.304;2022-09-09T14:44:44;15.60;;;9.27;;
42006;SDS011;27696;42.704;23.304;2022-09-09T14:47:09;19.30;;;8.60;;
42006;SDS011;27696;42.704;23.304;2022-09-09T14:49:35;17.23;;;9.10;;
42006;SDS011;27696;42.704;23.304;2022-09-09T14:52:02;16.02;;;8.60;;
42006;SDS011;27696;42.704;23.304;2022-09-09T14:54:28;11.65;;;9.27;;
42006;SDS011;27696;42.704;23.304;2022-09-09T14:56:54;10.02;;;7.90;;
42006;SDS011;27696;42.704;23.304;2022-09-09T14:59:19;13.93;;;8.75;;
42006;SDS011;27696;42.704;23.304;2022-09-09T15:01:45;15.93;;;8.30;;
42006;SDS011;27696;42.704;23.304;2022-09-09T15:04:11;17.40;;;9.25;;
42006;SDS011;27696;42.704;23.304;2022-09-09T15:06:39;15.80;;;8.02;;
42006;SDS011;27696;42.704;23.304;2022-09-09T15:09:06;17.90;;;8.40;;
42006;SDS011;27696;42.704;23.304;2022-09-09T15:11:33;18.00;;;8.68;;
42006;SDS011;27696;42.704;23.304;2022-09-09T15:14:07;14.00;;;8.38;;
42006;SDS011;27696;42.704;23.304;2022-09-09T15:16:35;19.88;;;9.35;;
42006;SDS011;27696;42.704;23.304;2022-09-09T15:19:02;18.52;;;10.70;;
42006;SDS011;27696;42.704;23.304;2022-09-09T15:21:31;16.60;;;9.65;;
42006;SDS011;27696;42.704;23.304;2022-09-09T15:23:58;26.10;;;10.90;;
42006;SDS011;27696;42.704;23.304;2022-09-09T15:26:24;16.30;;;9.88;;
42006;SDS011;27696;42.704;23.304;2022-09-09T15:28:50;19.38;;;7.75;;
42006;SDS011;27696;42.704;23.304;2022-09-09T15:31:17;17.67;;;9.85;;
42006;SDS011;27696;42.704;23.304;2022-09-09T15:33:50;14.05;;;7.15;;
42006;SDS011;27696;42.704;23.304;2022-09-09T15:38:44;12.45;;;7.45;;
42006;SDS011;27696;42.704;23.304;2022-09-09T15:41:10;15.52;;;8.30;;
42006;SDS011;27696;42.704;23.304;2022-09-09T15:43:37;10.07;;;8.15;;
42006;SDS011;27696;42.704;23.304;2022-09-09T15:46:08;16.67;;;7.82;;
42006;SDS011;27696;42.704;23.304;2022-09-09T15:48:54;12.68;;;7.82;;
42006;SDS011;27696;42.704;23.304;2022-09-09T15:51:21;12.63;;;7.97;;
42006;SDS011;27696;42.704;23.304;2022-09-09T15:53:47;15.55;;;8.40;;
42006;SDS011;27696;42.704;23.304;2022-09-09T15:56:13;18.95;;;9.27;;
42006;SDS011;27696;42.704;23.304;2022-09-09T15:58:38;14.68;;;9.48;;
42006;SDS011;27696;42.704;23.304;2022-09-09T16:01:04;16.80;;;8.27;;
42006;SDS011;27696;42.704;23.304;2022-09-09T16:03:39;18.85;;;10.73;;
42006;SDS011;27696;42.704;23.304;2022-09-09T16:06:12;13.65;;;8.73;;
42006;SDS011;27696;42.704;23.304;2022-09-09T16:08:42;23.27;;;13.73;;
42006;SDS011;27696;42.704;23.304;2022-09-09T16:11:10;21.85;;;9.75;;
42006;SDS011;27696;42.704;23.304;2022-09-09T16:13:41;24.52;;;10.18;;
42006;SDS011;27696;42.704;23.304;2022-09-09T16:16:09;26.02;;;9.40;;
42006;SDS011;27696;42.704;23.304;2022-09-09T16:18:37;19.13;;;9.65;;
42006;SDS011;27696;42.704;23.304;2022-09-09T16:21:08;14.05;;;8.55;;
42006;SDS011;27696;42.704;23.304;2022-09-09T16:23:40;20.83;;;10.98;;
42006;SDS011;27696;42.704;23.304;2022-09-09T16:26:08;20.27;;;8.82;;
42006;SDS011;27696;42.704;23.304;2022-09-09T16:28:36;17.40;;;9.70;;
42006;SDS011;27696;42.704;23.304;2022-09-09T16:31:05;15.27;;;8.88;;
42006;SDS011;27696;42.704;23.304;2022-09-09T16:33:35;23.88;;;15.35;;
42006;SDS011;27696;42.704;23.304;2022-09-09T16:36:05;19.70;;;11.48;;
42006;SDS011;27696;42.704;23.304;2022-09-09T16:38:32;17.75;;;10.95;;
42006;SDS011;27696;42.704;23.304;2022-09-09T16:40:58;22.75;;;14.30;;
42006;SDS011;27696;42.704;23.304;2022-09-09T16:43:25;19.42;;;10.82;;
42006;SDS011;27696;42.704;23.304;2022-09-09T16:45:50;23.80;;;10.05;;
42006;SDS011;27696;42.704;23.304;2022-09-09T16:48:16;18.48;;;10.60;;
42006;SDS011;27696;42.704;23.304;2022-09-09T16:50:41;23.77;;;10.60;;
42006;SDS011;27696;42.704;23.304;2022-09-09T16:53:07;21.52;;;9.77;;
42006;SDS011;27696;42.704;23.304;2022-09-09T16:55:37;18.80;;;9.73;;
42006;SDS011;27696;42.704;23.304;2022-09-09T16:58:06;15.07;;;9.55;;
42006;SDS011;27696;42.704;23.304;2022-09-09T17:00:33;19.00;;;9.13;;
42006;SDS011;27696;42.704;23.304;2022-09-09T17:02:59;19.40;;;10.02;;